createdAt,value
2022-12-13T00:01:52.874Z,28.20
2022-12-13T00:04:24.286Z,29.93
2022-12-13T00:06:53.931Z,24.03
2022-12-13T00:09:23.267Z,29.97
2022-12-13T00:11:54.763Z,27.27
2022-12-13T00:14:23.029Z,31.20
2022-12-13T00:16:52.141Z,25.33
2022-12-13T00:19:21.339Z,27.77
2022-12-13T00:21:50.063Z,25.03
2022-12-13T00:24:18.299Z,25.67
2022-12-13T00:26:46.888Z,26.53
2022-12-13T00:29:16.722Z,34.57
2022-12-13T00:31:59.270Z,31.57
2022-12-13T00:34:29.610Z,30.10
2022-12-13T00:36:59.698Z,33.27
2022-12-13T00:39:28.427Z,25.70
2022-12-13T00:41:56.755Z,32.07
2022-12-13T00:44:26.635Z,33.80
2022-12-13T00:46:54.896Z,32.43
2022-12-13T00:49:23.238Z,29.23
2022-12-13T00:51:51.474Z,24.93
2022-12-13T00:54:19.763Z,23.80
2022-12-13T00:56:48.006Z,30.97
2022-12-13T00:59:16.821Z,31.83
2022-12-13T01:01:46.501Z,24.77
2022-12-13T01:04:15.192Z,26.60
2022-12-13T01:06:46.828Z,30.17
2022-12-13T01:09:19.454Z,28.20
2022-12-13T01:11:48.846Z,25.63
2022-12-13T01:14:18.516Z,30.00
2022-12-13T01:16:48.267Z,29.10
2022-12-13T01:19:17.376Z,30.80
2022-12-13T01:21:45.693Z,26.17
2022-12-13T01:24:14.040Z,31.17
2022-12-13T01:26:42.317Z,28.90
2022-12-13T01:29:11.428Z,32.83
2022-12-13T01:31:41.681Z,29.37
2022-12-13T01:34:12.374Z,30.20
2022-12-13T01:36:41.593Z,27.53
2022-12-13T01:39:15.111Z,26.70
2022-12-13T01:41:45.532Z,26.80
2022-12-13T01:44:59.276Z,27.23
2022-12-13T01:47:33.229Z,30.30
2022-12-13T01:50:08.980Z,27.73
2022-12-13T01:52:37.930Z,28.70
2022-12-13T01:55:09.989Z,28.13
2022-12-13T01:57:45.447Z,25.13
2022-12-13T02:00:15.967Z,26.40
2022-12-13T02:02:44.443Z,28.67
2022-12-13T02:05:22.990Z,27.07
2022-12-13T02:07:51.884Z,26.07
2022-12-13T02:10:20.642Z,26.17
2022-12-13T02:12:49.137Z,30.20
2022-12-13T02:15:19.961Z,28.07
2022-12-13T02:18:07.965Z,28.33
2022-12-13T02:21:07.765Z,27.63
2022-12-13T02:24:29.183Z,26.00
2022-12-13T02:27:14.132Z,28.23
2022-12-13T02:30:24.505Z,29.83
2022-12-13T02:33:40.247Z,28.67
2022-12-13T02:36:14.721Z,28.40
2022-12-13T02:38:55.278Z,24.80
2022-12-13T02:41:36.211Z,31.83
2022-12-13T02:44:22.466Z,29.10
2022-12-13T02:46:56.811Z,27.40
2022-12-13T02:49:29.639Z,28.70
2022-12-13T02:51:59.107Z,26.70
2022-12-13T02:54:27.367Z,25.17
2022-12-13T02:56:56.602Z,26.23
2022-12-13T02:59:29.220Z,27.43
2022-12-13T03:02:12.850Z,30.57
2022-12-13T03:05:20.761Z,30.63
2022-12-13T03:08:13.014Z,81.90
2022-12-13T03:10:55.167Z,55.57
2022-12-13T03:13:38.887Z,40.13
2022-12-13T03:16:22.574Z,31.47
2022-12-13T03:18:54.443Z,28.43
2022-12-13T03:21:22.895Z,42.30
2022-12-13T03:23:51.375Z,51.40
2022-12-13T03:26:23.967Z,45.53
2022-12-13T03:28:53.829Z,93.57
2022-12-13T03:31:22.813Z,49.77
2022-12-13T03:33:52.492Z,46.43
2022-12-13T03:36:21.821Z,64.90
2022-12-13T03:38:52.377Z,39.03
2022-12-13T03:41:24.478Z,41.50
2022-12-13T03:43:52.848Z,52.43
2022-12-13T03:46:21.188Z,53.20
2022-12-13T03:48:49.523Z,55.50
2022-12-13T03:51:19.114Z,63.07
2022-12-13T03:53:47.460Z,44.10
2022-12-13T03:56:15.784Z,37.57
2022-12-13T03:58:44.208Z,115.40
2022-12-13T04:01:15.862Z,61.73
2022-12-13T04:03:47.322Z,104.53
2022-12-13T04:06:22.347Z,51.67
2022-12-13T04:08:52.354Z,41.70
2022-12-13T04:11:43.049Z,27.33
2022-12-13T04:14:12.321Z,43.03
2022-12-13T04:16:50.902Z,51.57
2022-12-13T04:19:22.947Z,34.10
2022-12-13T04:21:54.729Z,30.60
2022-12-13T04:24:31.025Z,35.03
2022-12-13T04:27:01.029Z,38.20
2022-12-13T04:29:34.166Z,35.00
2022-12-13T04:32:04.777Z,39.03
2022-12-13T04:34:37.640Z,32.73
2022-12-13T04:37:07.683Z,34.87
2022-12-13T04:39:36.256Z,39.20
2022-12-13T04:42:05.474Z,31.67
2022-12-13T04:44:36.883Z,35.60
2022-12-13T04:47:05.973Z,43.77
2022-12-13T04:49:35.116Z,35.70
2022-12-13T04:52:03.998Z,32.27
2022-12-13T04:54:36.663Z,42.40
2022-12-13T04:57:12.154Z,43.13
2022-12-13T04:59:41.450Z,56.93
2022-12-13T05:02:11.640Z,36.73
2022-12-13T05:04:40.101Z,38.87
2022-12-13T05:07:08.649Z,36.63
2022-12-13T05:09:38.296Z,38.07
2022-12-13T05:12:22.769Z,36.50
2022-12-13T05:14:52.151Z,35.37
2022-12-13T05:17:21.200Z,33.93
2022-12-13T05:19:49.487Z,32.47
2022-12-13T05:22:20.826Z,34.73
2022-12-13T05:24:50.888Z,28.03
2022-12-13T05:27:24.949Z,33.93
2022-12-13T05:30:03.308Z,31.47
2022-12-13T05:32:43.871Z,33.77
2022-12-13T05:35:14.214Z,28.60
2022-12-13T05:37:53.314Z,33.70
2022-12-13T05:40:24.096Z,30.37
2022-12-13T05:43:01.397Z,32.73
2022-12-13T05:45:31.093Z,33.53
2022-12-13T05:47:59.798Z,34.43
2022-12-13T05:50:28.097Z,35.83
2022-12-13T05:52:56.382Z,31.30
2022-12-13T05:55:26.030Z,33.13
2022-12-13T05:57:54.246Z,35.83
2022-12-13T06:00:31.214Z,37.00
2022-12-13T06:03:00.477Z,34.03
2022-12-13T06:05:30.153Z,36.00
2022-12-13T06:07:58.920Z,35.40
2022-12-13T06:10:34.865Z,33.43
2022-12-13T06:13:09.336Z,36.53
2022-12-13T06:15:51.116Z,33.77
2022-12-13T06:18:20.021Z,39.07
2022-12-13T06:20:58.520Z,39.43
2022-12-13T06:23:27.101Z,36.60
2022-12-13T06:25:56.742Z,39.30
2022-12-13T06:28:24.959Z,37.73
2022-12-13T06:30:53.372Z,38.33
2022-12-13T06:33:23.390Z,35.77
2022-12-13T06:35:52.681Z,35.87
2022-12-13T06:38:31.106Z,33.53
2022-12-13T06:41:11.537Z,41.50
2022-12-13T06:43:42.792Z,37.57
2022-12-13T06:46:11.851Z,35.07
2022-12-13T06:48:41.573Z,40.23
2022-12-13T06:51:10.581Z,38.77
2022-12-13T06:53:40.893Z,36.80
2022-12-13T06:56:14.184Z,39.07
2022-12-13T06:58:43.794Z,33.43
2022-12-13T07:01:23.952Z,36.50
2022-12-13T07:03:55.854Z,36.17
2022-12-13T07:06:27.406Z,34.07
2022-12-13T07:08:58.592Z,33.67
2022-12-13T07:11:30.926Z,34.97
2022-12-13T07:14:00.088Z,32.90
2022-12-13T07:16:29.909Z,35.90
2022-12-13T07:19:01.053Z,37.30
2022-12-13T07:21:30.917Z,36.60
2022-12-13T07:23:59.563Z,31.67
2022-12-13T07:26:29.345Z,36.37
2022-12-13T07:28:58.193Z,35.77
2022-12-13T07:31:27.904Z,32.17
2022-12-13T07:33:56.323Z,35.93
2022-12-13T07:36:25.142Z,34.80
2022-12-13T07:38:55.462Z,36.17
2022-12-13T07:41:24.524Z,34.53
2022-12-13T07:43:55.446Z,34.17
2022-12-13T07:46:33.068Z,37.87
2022-12-13T07:49:03.496Z,32.40
2022-12-13T07:51:33.736Z,39.37
2022-12-13T07:54:06.353Z,38.97
2022-12-13T07:56:35.384Z,41.30
2022-12-13T07:59:05.127Z,33.23
2022-12-13T08:01:34.713Z,42.57
2022-12-13T08:04:03.480Z,44.37
2022-12-13T08:06:36.077Z,36.57
2022-12-13T08:09:05.771Z,33.03
2022-12-13T08:11:34.525Z,34.53
2022-12-13T08:14:04.450Z,37.10
2022-12-13T08:16:32.843Z,33.23
2022-12-13T08:19:04.386Z,41.13
2022-12-13T08:21:55.095Z,31.20
2022-12-13T08:24:25.288Z,31.90
2022-12-13T08:26:53.574Z,32.73
2022-12-13T08:29:34.820Z,31.63
2022-12-13T08:32:06.068Z,35.27
2022-12-13T08:34:34.361Z,35.30
2022-12-13T08:37:04.043Z,33.60
2022-12-13T08:39:35.344Z,41.63
2022-12-13T08:42:16.170Z,38.17
2022-12-13T08:44:49.207Z,36.50
2022-12-13T08:47:24.481Z,29.27
2022-12-13T08:49:55.977Z,28.50
2022-12-13T08:52:30.881Z,30.53
2022-12-13T08:54:59.225Z,30.13
2022-12-13T08:57:27.473Z,31.13
2022-12-13T08:59:57.055Z,27.80
2022-12-13T09:02:25.625Z,35.80
2022-12-13T09:04:54.175Z,36.07
2022-12-13T09:07:22.458Z,34.50
2022-12-13T09:09:54.804Z,30.80
2022-12-13T09:12:30.300Z,48.70
2022-12-13T09:15:01.996Z,61.70
2022-12-13T09:17:37.207Z,37.90
2022-12-13T09:20:10.259Z,30.23
2022-12-13T09:23:01.174Z,25.20
2022-12-13T09:25:37.213Z,24.90
2022-12-13T09:28:09.333Z,27.13
2022-12-13T09:30:40.138Z,31.10
2022-12-13T09:33:28.258Z,28.87
2022-12-13T09:35:56.821Z,22.93
2022-12-13T09:38:25.148Z,24.93
2022-12-13T09:40:59.210Z,25.53
2022-12-13T09:43:33.474Z,29.10
2022-12-13T09:46:23.777Z,24.40
2022-12-13T09:49:01.771Z,28.47
2022-12-13T09:51:43.019Z,27.03
2022-12-13T09:54:20.170Z,28.10
2022-12-13T09:56:51.206Z,24.17
2022-12-13T09:59:22.657Z,27.37
2022-12-13T10:01:52.410Z,24.27
2022-12-13T10:04:20.860Z,24.17
2022-12-13T10:06:54.356Z,23.47
2022-12-13T10:09:23.161Z,23.20
2022-12-13T10:11:54.037Z,22.93
2022-12-13T10:14:27.857Z,25.30
2022-12-13T10:17:01.729Z,30.23
2022-12-13T10:19:36.939Z,34.67
2022-12-13T10:22:09.448Z,41.20
2022-12-13T10:24:52.231Z,27.80
2022-12-13T10:27:28.647Z,24.17
2022-12-13T10:30:11.839Z,21.47
2022-12-13T10:32:55.101Z,21.53
2022-12-13T10:35:27.379Z,19.73
2022-12-13T10:37:57.636Z,21.03
2022-12-13T10:40:34.205Z,20.43
2022-12-13T10:43:21.988Z,25.97
2022-12-13T10:46:01.463Z,22.93
2022-12-13T10:48:39.996Z,21.07
2022-12-13T10:51:11.654Z,21.57
2022-12-13T10:53:47.820Z,19.10
2022-12-13T10:56:23.015Z,19.40
2022-12-13T10:59:16.605Z,19.07
2022-12-13T11:01:45.920Z,18.93
2022-12-13T11:04:28.415Z,19.80
2022-12-13T11:06:58.466Z,19.73
2022-12-13T11:09:30.302Z,17.67
2022-12-13T11:12:16.329Z,16.10
2022-12-13T11:14:55.569Z,17.87
2022-12-13T11:17:27.634Z,20.90
2022-12-13T11:20:02.055Z,22.53
2022-12-13T11:22:32.425Z,20.70
2022-12-13T11:25:04.584Z,17.73
2022-12-13T11:28:02.146Z,20.20
2022-12-13T11:30:38.834Z,16.40
2022-12-13T11:33:19.931Z,16.27
2022-12-13T11:36:04.620Z,17.77
2022-12-13T11:38:41.633Z,17.50
2022-12-13T11:41:32.168Z,19.87
2022-12-13T11:44:08.566Z,18.50
2022-12-13T11:46:43.705Z,17.57
2022-12-13T11:49:18.052Z,16.70
2022-12-13T11:51:53.364Z,16.73
2022-12-13T11:54:30.379Z,14.10
2022-12-13T11:57:05.130Z,20.83
2022-12-13T11:59:40.803Z,16.67
2022-12-13T12:02:21.647Z,13.03
2022-12-13T12:04:59.635Z,17.73
2022-12-13T12:07:44.622Z,18.50
2022-12-13T12:10:35.924Z,19.23
2022-12-13T12:13:14.908Z,17.60
2022-12-13T12:15:55.101Z,14.17
2022-12-13T12:18:24.124Z,14.83
2022-12-13T12:21:13.872Z,16.83
2022-12-13T12:24:00.885Z,13.83
2022-12-13T12:26:38.385Z,14.70
2022-12-13T12:29:35.143Z,13.03
2022-12-13T12:32:17.527Z,16.53
2022-12-13T12:34:53.865Z,20.20
2022-12-13T12:37:34.443Z,23.53
2022-12-13T12:41:07.095Z,14.03
2022-12-13T12:43:32.301Z,15.17
2022-12-13T12:46:25.530Z,14.43
2022-12-13T12:49:30.769Z,13.13
2022-12-13T12:52:06.662Z,13.33
2022-12-13T12:54:46.460Z,18.87
2022-12-13T12:57:24.934Z,17.33
2022-12-13T13:00:04.572Z,13.30
2022-12-13T13:02:41.812Z,13.80
2022-12-13T13:05:20.596Z,11.33
2022-12-13T13:07:55.677Z,11.73
2022-12-13T13:10:26.274Z,12.50
2022-12-13T13:13:12.514Z,13.80
2022-12-13T13:15:58.275Z,10.10
2022-12-13T13:18:51.166Z,12.13
2022-12-13T13:21:46.002Z,13.80
2022-12-13T13:24:24.241Z,15.50
2022-12-13T13:26:56.549Z,11.50
2022-12-13T13:29:44.254Z,16.17
2022-12-13T13:32:30.218Z,10.77
2022-12-13T13:35:51.079Z,11.80
2022-12-13T13:38:53.200Z,14.20
2022-12-13T13:41:56.317Z,16.40
2022-12-13T13:44:54.141Z,18.53
2022-12-13T13:47:44.496Z,14.90
2022-12-13T13:50:46.580Z,15.93
2022-12-13T13:54:10.066Z,15.17
2022-12-13T13:58:07.680Z,9.33
2022-12-13T14:00:24.750Z,14.30
2022-12-13T14:03:44.241Z,15.33
2022-12-13T14:07:00.730Z,21.30
2022-12-13T14:09:59.775Z,18.23
2022-12-13T14:13:04.972Z,22.03
2022-12-13T14:16:31.656Z,17.30
2022-12-13T14:19:58.660Z,13.57
2022-12-13T14:22:36.184Z,23.77
2022-12-13T14:25:51.225Z,30.47
2022-12-13T14:28:34.248Z,51.90
2022-12-13T14:31:03.084Z,27.17
2022-12-13T14:33:31.612Z,32.67
2022-12-13T14:36:03.703Z,23.97
2022-12-13T14:38:33.548Z,16.23
2022-12-13T14:41:05.976Z,13.43
2022-12-13T14:43:36.568Z,18.67
2022-12-13T14:46:08.207Z,16.47
2022-12-13T14:48:43.634Z,16.57
2022-12-13T14:51:33.293Z,14.07
2022-12-13T14:54:03.818Z,12.93
2022-12-13T14:56:32.144Z,15.23
2022-12-13T14:59:03.749Z,12.43
2022-12-13T15:01:34.373Z,17.67
2022-12-13T15:04:27.267Z,12.33
2022-12-13T15:07:06.424Z,9.43
2022-12-13T15:09:39.475Z,11.30
2022-12-13T15:12:23.520Z,10.60
2022-12-13T15:14:59.710Z,10.90
2022-12-13T15:17:34.747Z,11.47
2022-12-13T15:20:09.381Z,13.03
2022-12-13T15:22:39.146Z,12.60
2022-12-13T15:25:08.272Z,16.47
2022-12-13T15:27:36.848Z,17.17
2022-12-13T15:30:06.465Z,16.90
2022-12-13T15:32:34.737Z,18.63
2022-12-13T15:35:17.413Z,18.10
2022-12-13T15:37:48.425Z,17.17
2022-12-13T15:40:16.857Z,25.33
2022-12-13T15:42:47.988Z,32.77
2022-12-13T15:45:22.947Z,21.53
2022-12-13T15:47:51.995Z,30.47
2022-12-13T15:50:35.077Z,29.77
2022-12-13T15:53:08.070Z,38.20
2022-12-13T15:55:37.950Z,33.43
2022-12-13T15:58:27.197Z,22.90
2022-12-13T16:00:55.523Z,25.33
2022-12-13T16:03:26.211Z,22.93
2022-12-13T16:05:57.344Z,49.50
2022-12-13T16:08:31.898Z,22.47
2022-12-13T16:11:01.043Z,17.63
2022-12-13T16:13:31.927Z,18.07
2022-12-13T16:16:08.826Z,31.50
2022-12-13T16:18:47.141Z,17.50
2022-12-13T16:21:15.549Z,15.10
2022-12-13T16:23:48.195Z,13.47
2022-12-13T16:26:24.024Z,15.37
2022-12-13T16:28:52.387Z,18.83
2022-12-13T16:31:26.050Z,19.07
2022-12-13T16:33:54.497Z,21.00
2022-12-13T16:36:22.808Z,17.63
2022-12-13T16:38:52.561Z,12.83
2022-12-13T16:41:22.039Z,20.43
2022-12-13T16:43:56.680Z,17.03
2022-12-13T16:47:13.709Z,12.20
2022-12-13T16:49:22.329Z,13.10
2022-12-13T16:51:50.653Z,13.90
2022-12-13T16:54:22.352Z,14.73
2022-12-13T16:56:51.732Z,14.07
2022-12-13T16:59:22.912Z,18.97
2022-12-13T17:01:51.495Z,15.83
2022-12-13T17:04:22.470Z,15.07
2022-12-13T17:06:54.931Z,15.90
2022-12-13T17:09:25.956Z,16.57
2022-12-13T17:11:54.441Z,16.10
2022-12-13T17:14:22.736Z,13.40
2022-12-13T17:16:51.065Z,13.37
2022-12-13T17:19:19.750Z,16.73
2022-12-13T17:21:48.227Z,21.60
2022-12-13T17:24:16.486Z,19.77
2022-12-13T17:26:54.434Z,16.00
2022-12-13T17:29:24.634Z,15.57
2022-12-13T17:31:53.318Z,18.97
2022-12-13T17:34:21.621Z,21.53
2022-12-13T17:36:49.880Z,25.57
2022-12-13T17:39:18.352Z,20.83
2022-12-13T17:41:55.154Z,22.53
2022-12-13T17:44:25.315Z,20.13
2022-12-13T17:46:55.071Z,18.13
2022-12-13T17:49:24.295Z,15.53
2022-12-13T17:51:54.098Z,18.17
2022-12-13T17:54:23.902Z,15.00
2022-12-13T17:56:54.736Z,15.70
2022-12-13T17:59:23.725Z,16.97
2022-12-13T18:01:52.577Z,15.50
2022-12-13T18:04:21.798Z,15.90
2022-12-13T18:06:51.355Z,15.93
2022-12-13T18:09:20.598Z,16.77
2022-12-13T18:11:48.998Z,15.13
2022-12-13T18:14:18.633Z,17.80
2022-12-13T18:16:46.914Z,16.93
2022-12-13T18:19:15.363Z,20.30
2022-12-13T18:21:44.277Z,18.53
2022-12-13T18:24:13.258Z,16.63
2022-12-13T18:26:41.628Z,14.37
2022-12-13T18:29:10.342Z,15.83
2022-12-13T18:31:40.063Z,17.07
2022-12-13T18:34:09.502Z,14.20
2022-12-13T18:36:39.495Z,15.93
2022-12-13T18:39:07.927Z,20.67
2022-12-13T18:41:36.297Z,15.57
2022-12-13T18:44:07.937Z,16.37
2022-12-13T18:46:43.365Z,16.50
2022-12-13T18:49:14.470Z,19.53
2022-12-13T18:51:42.831Z,16.47
2022-12-13T18:54:11.177Z,17.57
2022-12-13T18:56:39.471Z,15.90
2022-12-13T18:59:07.818Z,18.00
2022-12-13T19:01:36.221Z,15.40
2022-12-13T19:04:06.306Z,16.57
2022-12-13T19:06:34.677Z,15.00
2022-12-13T19:09:02.988Z,15.80
2022-12-13T19:11:32.089Z,14.30
2022-12-13T19:14:00.463Z,17.33
2022-12-13T19:16:29.148Z,17.03
2022-12-13T19:18:58.820Z,17.30
2022-12-13T19:21:28.523Z,20.60
2022-12-13T19:24:01.185Z,17.83
2022-12-13T19:26:30.700Z,15.47
2022-12-13T19:29:00.412Z,21.10
2022-12-13T19:31:32.158Z,21.23
2022-12-13T19:34:01.647Z,15.50
2022-12-13T19:36:33.642Z,14.50
2022-12-13T19:39:02.136Z,13.47
2022-12-13T19:41:33.513Z,18.03
2022-12-13T19:44:04.648Z,16.47
2022-12-13T19:46:33.339Z,25.80
2022-12-13T19:49:02.015Z,27.87
2022-12-13T19:51:37.482Z,22.07
2022-12-13T19:54:08.221Z,19.90
2022-12-13T19:56:36.528Z,16.47
2022-12-13T19:59:05.216Z,17.87
2022-12-13T20:01:33.945Z,15.33
2022-12-13T20:04:02.667Z,16.07
2022-12-13T20:06:32.442Z,15.07
2022-12-13T20:09:00.857Z,21.10
2022-12-13T20:11:29.922Z,17.10
2022-12-13T20:13:59.305Z,15.93
2022-12-13T20:16:28.260Z,19.53
2022-12-13T20:18:57.880Z,16.80
2022-12-13T20:21:27.215Z,20.27
2022-12-13T20:23:57.719Z,15.53
2022-12-13T20:26:29.398Z,17.03
2022-12-13T20:28:58.302Z,19.13
2022-12-13T20:31:31.277Z,16.70
2022-12-13T20:34:02.442Z,15.93
2022-12-13T20:36:32.893Z,15.40
2022-12-13T20:39:05.398Z,19.50
2022-12-13T20:41:36.489Z,21.43
2022-12-13T20:44:07.719Z,30.23
2022-12-13T20:46:36.618Z,36.83
2022-12-13T20:49:08.623Z,29.83
2022-12-13T20:51:38.712Z,35.80
2022-12-13T20:54:08.853Z,36.03
2022-12-13T20:56:39.157Z,29.93
2022-12-13T20:59:11.463Z,24.93
2022-12-13T21:01:41.722Z,24.37
2022-12-13T21:04:12.201Z,24.33
2022-12-13T21:06:42.352Z,21.23
2022-12-13T21:09:13.224Z,19.60
2022-12-13T21:11:43.580Z,25.57
2022-12-13T21:14:21.322Z,24.10
2022-12-13T21:16:52.745Z,20.70
2022-12-13T21:19:23.135Z,22.60
2022-12-13T21:21:52.302Z,20.33
2022-12-13T21:24:24.532Z,20.53
2022-12-13T21:26:53.170Z,17.53
2022-12-13T21:29:21.507Z,21.07
2022-12-13T21:31:51.040Z,23.83
2022-12-13T21:34:22.724Z,18.93
2022-12-13T21:36:53.832Z,19.57
2022-12-13T21:39:27.808Z,18.90
2022-12-13T21:41:56.537Z,20.57
2022-12-13T21:44:25.153Z,19.33
2022-12-13T21:49:42.060Z,40.37
2022-12-13T21:52:17.245Z,51.97
2022-12-13T21:54:46.946Z,50.63
2022-12-13T21:57:32.543Z,33.70
2022-12-13T22:00:00.789Z,19.43
2022-12-13T22:02:29.108Z,18.80
2022-12-13T22:04:59.321Z,24.13
2022-12-13T22:07:30.014Z,28.07
2022-12-13T22:10:01.858Z,20.87
2022-12-13T22:12:35.876Z,18.70
2022-12-13T22:15:05.719Z,23.77
2022-12-13T22:17:36.022Z,22.97
2022-12-13T22:20:06.350Z,24.53
2022-12-13T22:22:34.856Z,24.53
2022-12-13T22:25:04.834Z,29.43
2022-12-13T22:27:33.214Z,25.47
2022-12-13T22:30:01.456Z,22.20
2022-12-13T22:32:32.171Z,23.50
2022-12-13T22:35:00.644Z,26.47
2022-12-13T22:37:29.641Z,24.47
2022-12-13T22:39:57.930Z,16.90
2022-12-13T22:42:27.594Z,15.90
2022-12-13T22:44:55.805Z,14.40
2022-12-13T22:47:24.096Z,12.83
2022-12-13T22:49:52.343Z,14.73
2022-12-13T22:52:20.587Z,13.83
2022-12-13T22:54:48.779Z,15.03
2022-12-13T22:57:17.050Z,14.43
2022-12-13T22:59:46.660Z,12.80
2022-12-13T23:02:15.094Z,15.60
2022-12-13T23:04:43.463Z,12.57
2022-12-13T23:07:11.672Z,13.50
2022-12-13T23:09:40.064Z,13.83
2022-12-13T23:12:25.974Z,13.97
2022-12-13T23:14:55.588Z,12.93
2022-12-13T23:17:23.803Z,11.57
2022-12-13T23:19:53.418Z,9.90
2022-12-13T23:22:23.690Z,11.13
2022-12-13T23:24:52.599Z,12.30
2022-12-13T23:27:22.961Z,17.67
2022-12-13T23:29:51.576Z,11.93
2022-12-13T23:32:21.200Z,12.23
2022-12-13T23:34:49.392Z,14.40
2022-12-13T23:37:17.679Z,11.73
2022-12-13T23:39:45.915Z,11.97
2022-12-13T23:42:14.197Z,11.97
2022-12-13T23:44:43.388Z,11.07
2022-12-13T23:47:11.698Z,10.97
2022-12-13T23:49:41.264Z,10.57
2022-12-13T23:52:09.520Z,11.07
2022-12-13T23:54:37.834Z,12.30
2022-12-13T23:57:06.172Z,9.30
2022-12-13T23:59:34.408Z,11.90
